createdAt,value
2023-02-25T00:01:34.085Z,1.91
2023-02-25T00:04:00.898Z,1.85
2023-02-25T00:06:27.420Z,1.87
2023-02-25T00:08:54.302Z,1.88
2023-02-25T00:11:21.029Z,1.82
2023-02-25T00:13:47.567Z,1.83
2023-02-25T00:16:14.176Z,1.91
2023-02-25T00:18:44.259Z,1.89
2023-02-25T00:21:15.056Z,1.91
2023-02-25T00:23:44.784Z,1.91
2023-02-25T00:26:11.704Z,1.91
2023-02-25T00:28:39.901Z,1.93
2023-02-25T00:31:15.437Z,1.91
2023-02-25T00:33:42.392Z,1.89
2023-02-25T00:36:14.535Z,1.92
2023-02-25T00:38:41.336Z,1.92
2023-02-25T00:41:11.606Z,1.95
2023-02-25T00:43:39.871Z,1.91
2023-02-25T00:46:06.384Z,1.94
2023-02-25T00:48:33.226Z,1.96
2023-02-25T00:51:04.941Z,1.96
2023-02-25T00:53:31.419Z,1.93
2023-02-25T00:55:59.502Z,1.93
2023-02-25T00:58:25.979Z,1.89
2023-02-25T01:00:52.485Z,1.99
2023-02-25T01:03:18.994Z,1.97
2023-02-25T01:05:49.429Z,1.94
2023-02-25T01:08:17.646Z,1.92
2023-02-25T01:10:44.346Z,1.94
2023-02-25T01:13:10.834Z,1.96
2023-02-25T01:15:37.293Z,1.93
2023-02-25T01:18:04.503Z,1.95
2023-02-25T01:20:31.084Z,2.00
2023-02-25T01:22:57.606Z,1.98
2023-02-25T01:25:25.642Z,1.92
2023-02-25T01:27:55.296Z,2.01
2023-02-25T01:30:21.784Z,1.97
2023-02-25T01:32:48.316Z,1.97
2023-02-25T01:35:14.808Z,1.98
2023-02-25T01:37:43.758Z,1.94
2023-02-25T01:40:16.361Z,2.08
2023-02-25T01:42:44.593Z,2.03
2023-02-25T01:45:17.589Z,2.03
2023-02-25T01:47:46.359Z,2.04
2023-02-25T01:50:12.828Z,2.07
2023-02-25T01:52:39.460Z,2.05
2023-02-25T01:55:06.516Z,2.02
2023-02-25T01:57:33.008Z,1.97
2023-02-25T01:59:59.571Z,2.00
2023-02-25T02:02:26.119Z,2.01
2023-02-25T02:04:53.015Z,1.95
2023-02-25T02:07:19.850Z,2.05
2023-02-25T02:09:55.904Z,2.03
2023-02-25T02:12:27.007Z,2.00
2023-02-25T02:14:53.472Z,2.02
2023-02-25T02:17:38.203Z,1.99
2023-02-25T02:20:13.607Z,1.96
2023-02-25T02:22:49.492Z,1.97
2023-02-25T02:25:22.654Z,1.96
2023-02-25T02:28:17.282Z,1.97
2023-02-25T02:31:12.953Z,1.97
2023-02-25T02:33:50.691Z,2.00
2023-02-25T02:36:28.174Z,2.00
2023-02-25T02:39:32.994Z,2.01
2023-02-25T02:42:05.702Z,2.01
2023-02-25T02:44:47.084Z,2.00
2023-02-25T02:47:17.070Z,2.00
2023-02-25T02:49:46.456Z,1.96
2023-02-25T02:52:16.842Z,1.95
2023-02-25T02:54:45.233Z,1.94
2023-02-25T02:57:12.459Z,1.93
2023-02-25T02:59:44.745Z,1.96
2023-02-25T03:02:22.782Z,1.93
2023-02-25T03:04:50.433Z,1.93
2023-02-25T03:07:17.873Z,1.89
2023-02-25T03:09:47.128Z,1.87
2023-02-25T03:12:13.593Z,1.84
2023-02-25T03:14:40.106Z,1.88
2023-02-25T03:17:11.684Z,1.83
2023-02-25T03:19:59.916Z,1.85
2023-02-25T03:22:32.142Z,1.91
2023-02-25T03:25:15.041Z,1.88
2023-02-25T03:27:46.082Z,1.89
2023-02-25T03:30:40.506Z,1.88
2023-02-25T03:33:14.521Z,1.87
2023-02-25T03:35:41.033Z,1.88
2023-02-25T03:38:09.542Z,1.88
2023-02-25T03:40:36.747Z,1.91
2023-02-25T03:43:08.387Z,1.90
2023-02-25T03:45:36.075Z,1.97
2023-02-25T03:48:03.538Z,1.95
2023-02-25T03:50:31.300Z,1.93
2023-02-25T03:52:58.079Z,1.97
2023-02-25T03:55:24.566Z,2.00
2023-02-25T03:57:51.186Z,1.95
2023-02-25T04:00:28.476Z,1.93
2023-02-25T04:02:55.042Z,1.96
2023-02-25T04:05:21.953Z,1.95
2023-02-25T04:07:48.505Z,1.92
2023-02-25T04:10:15.780Z,1.94
2023-02-25T04:12:42.305Z,1.95
2023-02-25T04:15:09.253Z,1.98
2023-02-25T04:17:37.126Z,1.91
2023-02-25T04:20:05.080Z,1.93
2023-02-25T04:22:31.548Z,1.89
2023-02-25T04:24:58.019Z,1.90
2023-02-25T04:27:24.537Z,1.90
2023-02-25T04:29:51.026Z,1.88
2023-02-25T04:32:17.630Z,1.89
2023-02-25T04:34:44.196Z,1.93
2023-02-25T04:37:10.693Z,1.88
2023-02-25T04:39:37.284Z,1.88
2023-02-25T04:42:03.920Z,1.88
2023-02-25T04:44:30.975Z,1.88
2023-02-25T04:46:57.437Z,1.90
2023-02-25T04:49:23.901Z,1.88
2023-02-25T04:51:51.434Z,1.89
2023-02-25T04:54:21.121Z,1.89
2023-02-25T04:56:47.694Z,1.91
2023-02-25T04:59:14.297Z,1.90
2023-02-25T05:01:40.824Z,1.88
2023-02-25T05:04:07.652Z,1.90
2023-02-25T05:06:34.732Z,1.87
2023-02-25T05:09:01.215Z,1.77
2023-02-25T05:11:28.241Z,1.84
2023-02-25T05:13:55.975Z,1.73
2023-02-25T05:16:23.001Z,1.60
2023-02-25T05:18:49.686Z,1.58
2023-02-25T05:21:21.114Z,1.48
2023-02-25T05:23:48.263Z,1.30
2023-02-25T05:26:15.155Z,1.30
2023-02-25T05:28:43.561Z,1.20
2023-02-25T05:31:11.792Z,1.20
2023-02-25T05:33:38.889Z,1.16
2023-02-25T05:36:06.599Z,1.19
2023-02-25T05:38:33.863Z,1.12
2023-02-25T05:41:00.856Z,1.06
2023-02-25T05:43:27.329Z,1.08
2023-02-25T05:45:57.493Z,1.16
2023-02-25T05:48:23.804Z,1.17
2023-02-25T05:50:51.280Z,1.21
2023-02-25T05:53:18.884Z,1.23
2023-02-25T05:55:45.598Z,1.23
2023-02-25T05:58:12.117Z,1.21
2023-02-25T06:00:38.586Z,1.30
2023-02-25T06:03:05.141Z,1.24
2023-02-25T06:05:31.717Z,1.27
2023-02-25T06:07:58.295Z,1.30
2023-02-25T06:10:25.469Z,1.28
2023-02-25T06:12:51.958Z,1.29
2023-02-25T06:15:18.687Z,1.33
2023-02-25T06:17:45.202Z,1.34
2023-02-25T06:20:11.959Z,1.32
2023-02-25T06:22:38.415Z,1.28
2023-02-25T06:25:05.207Z,1.25
2023-02-25T06:27:31.705Z,1.22
2023-02-25T06:30:00.280Z,1.25
2023-02-25T06:32:26.971Z,1.24
2023-02-25T06:34:53.493Z,1.22
2023-02-25T06:37:20.247Z,1.22
2023-02-25T06:39:46.717Z,1.18
2023-02-25T06:42:13.184Z,1.18
2023-02-25T06:44:39.679Z,1.14
2023-02-25T06:47:06.190Z,1.25
2023-02-25T06:49:32.668Z,1.16
2023-02-25T06:51:59.117Z,1.23
2023-02-25T06:54:25.593Z,1.27
2023-02-25T06:56:53.370Z,1.27
2023-02-25T06:59:19.964Z,1.31
2023-02-25T07:01:46.500Z,1.35
2023-02-25T07:04:17.043Z,1.32
2023-02-25T07:06:43.525Z,1.35
2023-02-25T07:09:09.993Z,1.36
2023-02-25T07:11:36.577Z,1.34
2023-02-25T07:14:03.989Z,1.38
2023-02-25T07:16:30.477Z,1.38
2023-02-25T07:18:58.015Z,1.44
2023-02-25T07:21:24.688Z,1.47
2023-02-25T07:23:51.205Z,1.50
2023-02-25T07:26:17.676Z,1.51
2023-02-25T07:28:44.174Z,1.53
2023-02-25T07:31:15.640Z,1.54
2023-02-25T07:33:42.226Z,1.58
2023-02-25T07:36:09.058Z,1.64
2023-02-25T07:38:35.531Z,1.69
2023-02-25T07:41:06.296Z,1.71
2023-02-25T07:43:32.810Z,1.69
2023-02-25T07:45:59.484Z,1.70
2023-02-25T07:48:26.359Z,1.73
2023-02-25T07:50:52.825Z,1.65
2023-02-25T07:53:22.484Z,1.66
2023-02-25T07:55:49.479Z,1.66
2023-02-25T07:58:16.012Z,1.69
2023-02-25T08:00:44.985Z,1.74
2023-02-25T08:03:11.497Z,1.79
2023-02-25T08:05:38.213Z,1.74
2023-02-25T08:08:05.085Z,1.80
2023-02-25T08:10:31.699Z,1.77
2023-02-25T08:12:58.186Z,1.76
2023-02-25T08:15:24.844Z,1.86
2023-02-25T08:17:52.981Z,1.84
2023-02-25T08:20:19.773Z,1.90
2023-02-25T08:22:46.243Z,1.85
2023-02-25T08:25:12.742Z,1.82
2023-02-25T08:27:39.358Z,1.76
2023-02-25T08:30:08.905Z,1.79
2023-02-25T08:32:36.323Z,1.85
2023-02-25T08:35:02.945Z,1.82
2023-02-25T08:37:29.437Z,1.88
2023-02-25T08:39:56.474Z,1.96
2023-02-25T08:42:23.723Z,1.98
2023-02-25T08:44:50.261Z,2.02
2023-02-25T08:47:16.785Z,1.93
2023-02-25T08:49:43.313Z,2.08
2023-02-25T08:52:11.919Z,2.21
2023-02-25T08:54:39.080Z,2.13
2023-02-25T08:57:05.779Z,1.91
2023-02-25T08:59:35.907Z,2.03
2023-02-25T09:02:02.989Z,2.24
2023-02-25T09:04:29.614Z,2.21
2023-02-25T09:06:58.372Z,2.35
2023-02-25T09:09:25.060Z,2.60
2023-02-25T09:11:51.619Z,2.30
2023-02-25T09:14:18.272Z,2.15
2023-02-25T09:16:44.863Z,2.03
2023-02-25T09:19:12.553Z,2.04
2023-02-25T09:21:42.365Z,1.83
2023-02-25T09:24:08.922Z,1.68
2023-02-25T09:26:35.444Z,1.61
2023-02-25T09:29:03.119Z,1.47
2023-02-25T09:31:29.662Z,1.36
2023-02-25T09:33:56.201Z,1.33
2023-02-25T09:36:22.712Z,1.28
2023-02-25T09:38:49.662Z,1.27
2023-02-25T09:41:27.324Z,1.36
2023-02-25T09:44:05.703Z,1.37
2023-02-25T09:46:33.200Z,1.48
2023-02-25T09:49:09.901Z,1.47
2023-02-25T09:51:38.164Z,1.19
2023-02-25T09:54:27.916Z,0.59
2023-02-25T09:56:54.844Z,0.43
2023-02-25T09:59:22.075Z,0.59
2023-02-25T10:01:57.214Z,0.63
2023-02-25T10:04:43.677Z,0.80
2023-02-25T10:07:16.743Z,1.00
2023-02-25T10:09:54.264Z,1.13
2023-02-25T10:12:49.784Z,1.24
2023-02-25T10:15:25.240Z,1.36
2023-02-25T10:18:08.205Z,1.53
2023-02-25T10:20:48.664Z,1.61
2023-02-25T10:23:24.492Z,1.80
2023-02-25T10:26:07.273Z,2.35
2023-02-25T10:28:33.771Z,2.37
2023-02-25T10:31:18.632Z,2.31
2023-02-25T10:33:46.649Z,2.09
2023-02-25T10:36:16.257Z,2.12
2023-02-25T10:38:47.426Z,1.77
2023-02-25T10:41:14.411Z,1.88
2023-02-25T10:43:40.897Z,1.85
2023-02-25T10:46:11.446Z,1.73
2023-02-25T10:48:38.526Z,1.71
2023-02-25T10:51:13.072Z,1.78
2023-02-25T10:53:57.812Z,2.51
2023-02-25T10:56:24.743Z,2.94
2023-02-25T10:59:27.699Z,3.75
2023-02-25T11:01:54.895Z,3.85
2023-02-25T11:04:25.083Z,3.43
2023-02-25T11:06:51.585Z,3.24
2023-02-25T11:09:20.972Z,3.02
2023-02-25T11:11:58.224Z,2.70
2023-02-25T11:14:33.468Z,2.65
2023-02-25T11:17:13.496Z,2.07
2023-02-25T11:19:44.182Z,1.90
2023-02-25T11:22:18.412Z,1.76
2023-02-25T11:24:46.953Z,1.74
2023-02-25T11:27:30.778Z,1.70
2023-02-25T11:30:02.222Z,1.69
2023-02-25T11:32:28.968Z,1.69
2023-02-25T11:34:56.421Z,1.71
2023-02-25T11:37:45.541Z,1.70
2023-02-25T11:40:26.316Z,1.83
2023-02-25T11:43:04.988Z,2.09
2023-02-25T11:45:36.235Z,2.29
2023-02-25T11:48:03.031Z,2.47
2023-02-25T11:50:50.763Z,1.96
2023-02-25T11:53:35.832Z,1.90
2023-02-25T11:56:15.599Z,1.80
2023-02-25T11:59:12.689Z,1.74
2023-02-25T12:01:57.950Z,1.76
2023-02-25T12:04:54.952Z,1.97
2023-02-25T12:08:00.071Z,1.95
2023-02-25T12:10:55.723Z,1.96
2023-02-25T12:13:31.046Z,2.50
2023-02-25T12:16:18.504Z,2.69
2023-02-25T12:19:07.963Z,2.33
2023-02-25T12:22:04.485Z,1.92
2023-02-25T12:24:52.432Z,1.88
2023-02-25T12:27:41.135Z,2.51
2023-02-25T12:30:32.730Z,2.51
2023-02-25T12:33:17.748Z,2.69
2023-02-25T12:35:44.206Z,2.63
2023-02-25T12:38:48.121Z,2.27
2023-02-25T12:41:45.954Z,2.12
2023-02-25T12:44:33.217Z,2.17
2023-02-25T12:47:18.921Z,2.11
2023-02-25T12:49:59.105Z,1.77
2023-02-25T12:52:44.325Z,1.69
2023-02-25T12:55:44.865Z,1.44
2023-02-25T12:58:44.962Z,1.73
2023-02-25T13:01:51.762Z,1.83
2023-02-25T13:04:33.303Z,2.00
2023-02-25T13:07:36.329Z,2.09
2023-02-25T13:10:31.828Z,2.05
2023-02-25T13:13:22.813Z,2.09
2023-02-25T13:16:20.097Z,1.87
2023-02-25T13:18:55.339Z,1.86
2023-02-25T13:21:46.169Z,1.94
2023-02-25T13:24:48.949Z,1.80
2023-02-25T13:27:23.375Z,1.87
2023-02-25T13:30:21.153Z,1.99
2023-02-25T13:33:00.898Z,2.06
2023-02-25T13:36:00.547Z,2.25
2023-02-25T13:38:54.385Z,2.45
2023-02-25T13:41:45.891Z,2.51
2023-02-25T13:44:32.784Z,2.31
2023-02-25T13:47:12.959Z,2.17
2023-02-25T13:50:11.883Z,2.16
2023-02-25T13:53:07.441Z,2.13
2023-02-25T13:56:12.349Z,2.03
2023-02-25T13:58:42.416Z,1.85
2023-02-25T14:01:37.021Z,2.26
2023-02-25T14:04:37.780Z,2.67
2023-02-25T14:07:40.258Z,2.32
2023-02-25T14:10:28.981Z,2.29
2023-02-25T14:13:08.101Z,2.12
2023-02-25T14:15:34.454Z,2.07
2023-02-25T14:18:10.788Z,2.48
2023-02-25T14:20:49.374Z,2.56
2023-02-25T14:23:38.181Z,2.65
2023-02-25T14:26:19.757Z,2.60
2023-02-25T14:29:16.431Z,2.65
2023-02-25T14:31:58.681Z,2.44
2023-02-25T14:35:00.749Z,2.44
2023-02-25T14:37:34.113Z,2.16
2023-02-25T14:40:07.779Z,2.02
2023-02-25T14:42:50.244Z,1.89
2023-02-25T14:45:47.012Z,1.81
2023-02-25T14:48:50.613Z,1.70
2023-02-25T14:51:24.009Z,1.70
2023-02-25T14:54:23.230Z,1.64
2023-02-25T14:57:20.424Z,1.68
2023-02-25T15:00:16.096Z,1.55
2023-02-25T15:02:52.042Z,1.59
2023-02-25T15:05:39.804Z,1.59
2023-02-25T15:08:25.467Z,1.47
2023-02-25T15:11:05.695Z,1.39
2023-02-25T15:13:44.576Z,1.38
2023-02-25T15:16:29.878Z,1.28
2023-02-25T15:19:05.357Z,1.37
2023-02-25T15:21:31.681Z,1.48
2023-02-25T15:23:58.305Z,1.56
2023-02-25T15:26:26.493Z,1.62
2023-02-25T15:28:54.838Z,1.67
2023-02-25T15:31:32.866Z,1.65
2023-02-25T15:34:21.173Z,1.68
2023-02-25T15:36:50.025Z,1.59
2023-02-25T15:39:41.604Z,1.55
2023-02-25T15:42:09.291Z,1.43
2023-02-25T15:44:37.354Z,1.38
2023-02-25T15:47:23.731Z,1.39
2023-02-25T15:49:50.516Z,1.39
2023-02-25T15:52:49.228Z,1.44
2023-02-25T15:55:30.863Z,1.42
2023-02-25T15:57:57.403Z,1.44
2023-02-25T16:00:42.579Z,1.47
2023-02-25T16:03:36.331Z,1.47
2023-02-25T16:06:41.191Z,1.45
2023-02-25T16:09:09.669Z,1.46
2023-02-25T16:11:42.404Z,1.33
2023-02-25T16:14:22.653Z,1.25
2023-02-25T16:16:57.358Z,1.20
2023-02-25T16:19:28.822Z,1.17
2023-02-25T16:22:03.701Z,1.18
2023-02-25T16:24:30.231Z,1.21
2023-02-25T16:27:22.113Z,1.18
2023-02-25T16:30:16.940Z,1.10
2023-02-25T16:32:58.913Z,1.15
2023-02-25T16:35:32.601Z,0.99
2023-02-25T16:38:21.836Z,0.95
2023-02-25T16:40:48.770Z,0.84
2023-02-25T16:43:24.607Z,0.82
2023-02-25T16:46:04.298Z,0.77
2023-02-25T16:48:36.116Z,0.77
2023-02-25T16:51:18.644Z,0.67
2023-02-25T16:53:45.709Z,0.83
2023-02-25T16:56:23.006Z,0.76
2023-02-25T16:58:58.740Z,0.62
2023-02-25T17:01:26.279Z,0.64
2023-02-25T17:03:54.211Z,0.69
2023-02-25T17:06:21.070Z,0.67
2023-02-25T17:08:48.705Z,0.56
2023-02-25T17:11:19.067Z,0.52
2023-02-25T17:13:45.550Z,0.48
2023-02-25T17:16:34.106Z,0.47
2023-02-25T17:19:03.881Z,0.39
2023-02-25T17:21:37.728Z,0.41
2023-02-25T17:24:06.295Z,0.29
2023-02-25T17:26:32.978Z,0.34
2023-02-25T17:29:00.297Z,0.36
2023-02-25T17:31:28.529Z,0.30
2023-02-25T17:34:03.445Z,0.32
2023-02-25T17:36:34.549Z,0.28
2023-02-25T17:39:03.829Z,0.19
2023-02-25T17:41:30.299Z,0.22
2023-02-25T17:43:56.756Z,0.09
2023-02-25T17:46:44.569Z,0.15
2023-02-25T17:49:31.051Z,0.17
2023-02-25T17:52:08.034Z,-0.02
2023-02-25T17:54:36.191Z,0.11
2023-02-25T17:57:05.419Z,0.06
2023-02-25T17:59:39.872Z,0.06
2023-02-25T18:02:31.816Z,-0.03
2023-02-25T18:05:11.689Z,-0.02
2023-02-25T18:07:39.999Z,-0.01
2023-02-25T18:10:27.089Z,-0.04
2023-02-25T18:12:54.366Z,-0.22
2023-02-25T18:15:23.060Z,-0.15
2023-02-25T18:17:51.469Z,-0.07
2023-02-25T18:20:29.904Z,-0.12
2023-02-25T18:22:56.436Z,-0.10
2023-02-25T18:26:12.302Z,-0.03
2023-02-25T18:28:39.009Z,-0.11
2023-02-25T18:31:05.575Z,-0.14
2023-02-25T18:33:32.170Z,-0.26
2023-02-25T18:35:58.879Z,-0.41
2023-02-25T18:38:25.914Z,-0.30
2023-02-25T18:40:52.891Z,-0.38
2023-02-25T18:43:30.476Z,-0.50
2023-02-25T18:45:57.036Z,-0.39
2023-02-25T18:48:23.513Z,-0.48
2023-02-25T18:50:50.040Z,-0.52
2023-02-25T18:53:23.798Z,-0.48
2023-02-25T18:55:51.045Z,-0.43
2023-02-25T18:58:18.004Z,-0.50
2023-02-25T19:00:45.760Z,-0.58
2023-02-25T19:03:14.682Z,-0.64
2023-02-25T19:05:41.214Z,-0.61
2023-02-25T19:08:12.993Z,-0.64
2023-02-25T19:10:39.477Z,-0.65
2023-02-25T19:13:15.477Z,-0.54
2023-02-25T19:15:41.929Z,-0.54
2023-02-25T19:18:12.879Z,-0.70
2023-02-25T19:20:39.339Z,-0.59
2023-02-25T19:23:05.866Z,-0.64
2023-02-25T19:25:36.001Z,-0.77
2023-02-25T19:28:02.320Z,-0.71
2023-02-25T19:30:30.932Z,-0.81
2023-02-25T19:33:03.485Z,-0.73
2023-02-25T19:35:32.019Z,-0.80
2023-02-25T19:37:58.509Z,-0.70
2023-02-25T19:40:25.382Z,-0.76
2023-02-25T19:42:51.862Z,-0.78
2023-02-25T19:45:19.997Z,-0.93
2023-02-25T19:47:47.017Z,-1.01
2023-02-25T19:50:13.944Z,-0.80
2023-02-25T19:52:40.412Z,-0.81
2023-02-25T19:55:07.510Z,-0.52
2023-02-25T19:57:33.991Z,-0.53
2023-02-25T20:00:00.459Z,-0.39
2023-02-25T20:02:26.934Z,-0.42
2023-02-25T20:04:53.407Z,-0.40
2023-02-25T20:07:19.868Z,-0.41
2023-02-25T20:09:46.349Z,-0.44
2023-02-25T20:12:13.452Z,-0.36
2023-02-25T20:14:39.926Z,-0.28
2023-02-25T20:17:06.396Z,-0.22
2023-02-25T20:19:32.994Z,-0.28
2023-02-25T20:22:00.021Z,-0.28
2023-02-25T20:24:26.570Z,-0.19
2023-02-25T20:26:53.042Z,-0.21
2023-02-25T20:29:19.651Z,-0.27
2023-02-25T20:31:46.240Z,-0.27
2023-02-25T20:34:14.424Z,-0.31
2023-02-25T20:36:51.400Z,-0.36
2023-02-25T20:39:36.525Z,-0.39
2023-02-25T20:42:14.216Z,-0.42
2023-02-25T20:44:40.786Z,-0.47
2023-02-25T20:47:07.416Z,-0.48
2023-02-25T20:49:33.947Z,-0.52
2023-02-25T20:52:00.577Z,-0.56
2023-02-25T20:54:27.036Z,-0.57
2023-02-25T20:56:53.500Z,-0.62
2023-02-25T20:59:19.991Z,-0.53
2023-02-25T21:01:46.474Z,-0.58
2023-02-25T21:04:12.987Z,-0.63
2023-02-25T21:06:39.484Z,-0.73
2023-02-25T21:09:06.290Z,-0.78
2023-02-25T21:11:32.833Z,-0.79
2023-02-25T21:13:59.304Z,-0.77
2023-02-25T21:16:26.134Z,-0.79
2023-02-25T21:18:52.889Z,-0.78
2023-02-25T21:21:20.668Z,-0.81
2023-02-25T21:23:47.620Z,-0.91
2023-02-25T21:26:14.122Z,-0.96
2023-02-25T21:28:43.616Z,-0.92
2023-02-25T21:31:14.145Z,-1.01
2023-02-25T21:33:40.911Z,-1.03
2023-02-25T21:36:08.627Z,-1.08
2023-02-25T21:38:37.002Z,-1.16
2023-02-25T21:41:08.707Z,-1.16
2023-02-25T21:43:35.208Z,-1.25
2023-02-25T21:46:02.623Z,-1.20
2023-02-25T21:48:29.503Z,-1.18
2023-02-25T21:50:55.959Z,-1.17
2023-02-25T21:53:23.317Z,-1.14
2023-02-25T21:55:49.786Z,-1.03
2023-02-25T21:58:16.272Z,-1.14
2023-02-25T22:00:43.036Z,-1.12
2023-02-25T22:03:10.540Z,-1.02
2023-02-25T22:05:37.581Z,-1.00
2023-02-25T22:08:04.944Z,-1.00
2023-02-25T22:10:35.149Z,-1.08
2023-02-25T22:13:01.891Z,-1.19
2023-02-25T22:15:28.831Z,-1.16
2023-02-25T22:17:55.296Z,-1.09
2023-02-25T22:20:21.760Z,-1.06
2023-02-25T22:22:48.229Z,-1.09
2023-02-25T22:25:14.733Z,-1.10
2023-02-25T22:27:41.196Z,-1.04
2023-02-25T22:30:08.784Z,-1.09
2023-02-25T22:32:36.616Z,-1.15
2023-02-25T22:35:03.819Z,-1.02
2023-02-25T22:37:31.803Z,-1.07
2023-02-25T22:39:58.264Z,-1.17
2023-02-25T22:42:25.040Z,-1.16
2023-02-25T22:44:51.500Z,-1.29
2023-02-25T22:47:17.957Z,-1.24
2023-02-25T22:49:44.422Z,-1.33
2023-02-25T22:52:11.904Z,-1.38
2023-02-25T22:54:38.384Z,-1.37
2023-02-25T22:57:04.855Z,-1.38
2023-02-25T22:59:31.387Z,-1.43
2023-02-25T23:01:59.428Z,-1.41
2023-02-25T23:04:26.024Z,-1.51
2023-02-25T23:06:54.081Z,-1.53
2023-02-25T23:09:20.607Z,-1.57
2023-02-25T23:11:47.129Z,-1.63
2023-02-25T23:14:14.231Z,-1.65
2023-02-25T23:16:42.376Z,-1.82
2023-02-25T23:19:10.556Z,-1.86
2023-02-25T23:21:38.543Z,-1.86
2023-02-25T23:24:05.501Z,-1.89
2023-02-25T23:26:33.611Z,-1.77
2023-02-25T23:29:01.846Z,-1.85
2023-02-25T23:31:30.182Z,-1.92
2023-02-25T23:34:01.043Z,-1.87
2023-02-25T23:36:27.974Z,-1.88
2023-02-25T23:38:55.425Z,-1.82
2023-02-25T23:41:22.094Z,-1.90
2023-02-25T23:43:52.626Z,-1.86
2023-02-25T23:46:19.267Z,-1.87
2023-02-25T23:48:45.809Z,-1.95
2023-02-25T23:51:13.155Z,-2.01
2023-02-25T23:53:40.732Z,-1.96
2023-02-25T23:56:11.332Z,-1.96
2023-02-25T23:58:37.936Z,-1.95
